createdAt,value
2022-10-11T00:00:16.063Z,63.63
2022-10-11T00:03:04.166Z,63.72
2022-10-11T00:05:32.669Z,63.72
2022-10-11T00:08:00.054Z,63.73
2022-10-11T00:10:27.311Z,63.91
2022-10-11T00:12:55.055Z,63.92
2022-10-11T00:15:22.887Z,63.92
2022-10-11T00:17:50.209Z,64.02
2022-10-11T00:20:18.152Z,64.11
2022-10-11T00:22:45.635Z,63.95
2022-10-11T00:25:12.993Z,64.10
2022-10-11T00:27:40.479Z,64.28
2022-10-11T00:30:09.160Z,64.20
2022-10-11T00:32:38.301Z,64.40
2022-10-11T00:35:07.239Z,64.28
2022-10-11T00:37:35.910Z,64.22
2022-10-11T00:40:07.107Z,64.50
2022-10-11T00:42:34.584Z,64.54
2022-10-11T00:45:40.085Z,64.62
2022-10-11T00:48:17.668Z,64.63
2022-10-11T00:50:44.806Z,64.65
2022-10-11T00:53:12.600Z,64.74
2022-10-11T00:55:47.013Z,64.34
2022-10-11T00:58:14.966Z,64.44
2022-10-11T01:00:42.309Z,64.75
2022-10-11T01:03:10.150Z,64.88
2022-10-11T01:05:39.494Z,64.99
2022-10-11T01:08:08.308Z,64.99
2022-10-11T01:10:35.817Z,65.12
2022-10-11T01:13:35.948Z,65.14
2022-10-11T01:16:24.396Z,65.14
2022-10-11T01:19:07.025Z,65.20
2022-10-11T01:21:49.026Z,65.01
2022-10-11T01:24:28.433Z,65.15
2022-10-11T01:27:25.132Z,65.37
2022-10-11T01:30:03.393Z,65.52
2022-10-11T01:32:43.929Z,65.49
2022-10-11T01:35:28.525Z,65.58
2022-10-11T01:38:06.016Z,65.63
2022-10-11T01:40:39.224Z,65.55
2022-10-11T01:43:06.533Z,65.45
2022-10-11T01:45:35.146Z,65.60
2022-10-11T01:48:13.418Z,65.76
2022-10-11T01:50:47.509Z,65.76
2022-10-11T01:53:47.861Z,65.84
2022-10-11T01:56:15.545Z,65.95
2022-10-11T01:58:51.916Z,65.76
2022-10-11T02:01:31.558Z,65.68
2022-10-11T02:04:10.817Z,65.78
2022-10-11T02:07:05.425Z,66.03
2022-10-11T02:09:46.286Z,65.78
2022-10-11T02:12:20.556Z,65.93
2022-10-11T02:14:51.033Z,66.14
2022-10-11T02:17:19.680Z,66.19
2022-10-11T02:19:52.148Z,66.25
2022-10-11T02:22:24.323Z,66.37
2022-10-11T02:24:55.469Z,66.40
2022-10-11T02:27:27.189Z,66.31
2022-10-11T02:29:58.374Z,66.28
2022-10-11T02:32:27.350Z,66.23
2022-10-11T02:34:57.735Z,66.40
2022-10-11T02:37:32.159Z,66.56
2022-10-11T02:40:27.794Z,66.49
2022-10-11T02:43:01.280Z,66.50
2022-10-11T02:45:38.113Z,66.66
2022-10-11T02:48:08.356Z,66.81
2022-10-11T02:50:36.822Z,66.82
2022-10-11T02:53:04.504Z,66.96
2022-10-11T02:55:32.280Z,66.93
2022-10-11T02:58:00.111Z,66.82
2022-10-11T03:00:27.900Z,66.96
2022-10-11T03:02:55.690Z,67.01
2022-10-11T03:05:23.084Z,67.00
2022-10-11T03:07:50.102Z,67.14
2022-10-11T03:10:18.778Z,67.19
2022-10-11T03:12:46.196Z,67.12
2022-10-11T03:15:13.318Z,67.16
2022-10-11T03:17:41.144Z,67.15
2022-10-11T03:20:09.061Z,67.14
2022-10-11T03:22:36.247Z,67.31
2022-10-11T03:25:04.777Z,67.25
2022-10-11T03:27:33.409Z,67.36
2022-10-11T03:30:00.859Z,67.43
2022-10-11T03:32:28.641Z,67.29
2022-10-11T03:34:56.977Z,67.41
2022-10-11T03:37:24.997Z,67.71
2022-10-11T03:39:52.325Z,67.73
2022-10-11T03:42:20.293Z,67.84
2022-10-11T03:44:49.180Z,67.82
2022-10-11T03:47:17.101Z,67.77
2022-10-11T03:49:44.404Z,67.89
2022-10-11T03:52:11.558Z,67.94
2022-10-11T03:54:39.079Z,68.06
2022-10-11T03:57:07.050Z,68.13
2022-10-11T03:59:34.080Z,68.21
2022-10-11T04:02:01.447Z,68.50
2022-10-11T04:04:29.239Z,68.35
2022-10-11T04:06:56.330Z,68.57
2022-10-11T04:09:23.549Z,68.52
2022-10-11T04:11:51.152Z,68.66
2022-10-11T04:14:18.589Z,68.65
2022-10-11T04:16:46.076Z,68.79
2022-10-11T04:19:13.809Z,68.98
2022-10-11T04:21:41.277Z,69.29
2022-10-11T04:24:11.125Z,69.12
2022-10-11T04:26:38.427Z,69.02
2022-10-11T04:29:05.766Z,69.27
2022-10-11T04:31:33.225Z,69.48
2022-10-11T04:34:00.765Z,69.59
2022-10-11T04:36:28.042Z,69.59
2022-10-11T04:38:56.182Z,69.64
2022-10-11T04:41:23.905Z,69.84
2022-10-11T04:43:51.056Z,69.92
2022-10-11T04:46:18.380Z,69.84
2022-10-11T04:48:45.704Z,69.87
2022-10-11T04:51:12.799Z,69.85
2022-10-11T04:53:40.206Z,69.94
2022-10-11T04:56:10.901Z,69.81
2022-10-11T04:58:42.821Z,69.89
2022-10-11T05:01:11.332Z,69.92
2022-10-11T05:03:38.373Z,70.04
2022-10-11T05:06:06.454Z,70.05
2022-10-11T05:08:34.009Z,70.22
2022-10-11T05:11:03.989Z,70.11
2022-10-11T05:13:32.736Z,70.26
2022-10-11T05:16:01.055Z,70.34
2022-10-11T05:18:29.220Z,70.24
2022-10-11T05:21:06.108Z,70.67
2022-10-11T05:23:35.530Z,70.57
2022-10-11T05:26:03.563Z,70.57
2022-10-11T05:28:31.843Z,70.65
2022-10-11T05:30:59.598Z,70.79
2022-10-11T05:33:27.386Z,70.65
2022-10-11T05:35:54.733Z,70.78
2022-10-11T05:38:22.561Z,70.97
2022-10-11T05:40:50.049Z,70.69
2022-10-11T05:43:17.728Z,70.75
2022-10-11T05:45:46.130Z,70.83
2022-10-11T05:48:13.499Z,70.88
2022-10-11T05:50:41.226Z,71.03
2022-10-11T05:53:09.018Z,71.15
2022-10-11T05:55:41.654Z,70.98
2022-10-11T05:58:14.669Z,71.01
2022-10-11T06:00:41.993Z,70.99
2022-10-11T06:03:12.357Z,71.10
2022-10-11T06:05:40.462Z,71.05
2022-10-11T06:08:09.540Z,71.26
2022-10-11T06:10:38.371Z,71.06
2022-10-11T06:13:07.265Z,71.15
2022-10-11T06:15:38.355Z,71.27
2022-10-11T06:18:05.568Z,71.43
2022-10-11T06:20:33.057Z,71.61
2022-10-11T06:23:00.761Z,71.40
2022-10-11T06:25:27.916Z,71.28
2022-10-11T06:27:55.842Z,71.49
2022-10-11T06:30:23.899Z,71.46
2022-10-11T06:32:51.393Z,71.60
2022-10-11T06:35:18.532Z,71.40
2022-10-11T06:37:45.733Z,71.48
2022-10-11T06:40:13.143Z,71.40
2022-10-11T06:42:40.804Z,71.45
2022-10-11T06:45:08.520Z,71.40
2022-10-11T06:47:35.920Z,71.83
2022-10-11T06:50:03.888Z,70.68
2022-10-11T06:52:31.255Z,70.70
2022-10-11T06:54:58.497Z,70.88
2022-10-11T06:57:27.361Z,71.23
2022-10-11T06:59:54.784Z,70.52
2022-10-11T07:02:22.276Z,70.46
2022-10-11T07:04:49.760Z,69.49
2022-10-11T07:07:17.383Z,68.90
2022-10-11T07:09:44.496Z,69.67
2022-10-11T07:12:12.345Z,69.28
2022-10-11T07:14:39.877Z,68.56
2022-10-11T07:17:07.392Z,67.94
2022-10-11T07:19:35.378Z,66.73
2022-10-11T07:22:02.651Z,66.49
2022-10-11T07:24:29.816Z,67.03
2022-10-11T07:26:57.752Z,66.81
2022-10-11T07:29:25.163Z,66.10
2022-10-11T07:31:52.195Z,66.29
2022-10-11T07:34:20.698Z,65.35
2022-10-11T07:36:48.473Z,65.67
2022-10-11T07:39:15.593Z,65.42
2022-10-11T07:41:45.870Z,65.05
2022-10-11T07:44:14.320Z,65.32
2022-10-11T07:46:41.515Z,64.55
2022-10-11T07:49:22.573Z,63.90
2022-10-11T07:52:06.260Z,64.17
2022-10-11T07:54:33.585Z,62.98
2022-10-11T07:57:01.268Z,61.59
2022-10-11T07:59:28.729Z,61.69
2022-10-11T08:01:56.236Z,62.49
2022-10-11T08:04:23.606Z,61.31
2022-10-11T08:06:53.317Z,61.43
2022-10-11T08:09:20.864Z,60.81
2022-10-11T08:11:48.230Z,60.71
2022-10-11T08:14:15.345Z,61.17
2022-10-11T08:16:42.596Z,60.15
2022-10-11T08:19:10.765Z,60.07
2022-10-11T08:21:38.250Z,61.03
2022-10-11T08:24:06.724Z,58.85
2022-10-11T08:26:34.793Z,60.32
2022-10-11T08:29:03.102Z,59.34
2022-10-11T08:31:31.936Z,59.07
2022-10-11T08:33:59.512Z,59.29
2022-10-11T08:36:26.886Z,57.13
2022-10-11T08:38:54.108Z,56.07
2022-10-11T08:41:55.379Z,57.08
2022-10-11T08:45:05.888Z,56.29
2022-10-11T08:47:43.678Z,54.98
2022-10-11T08:50:19.572Z,55.56
2022-10-11T08:52:56.357Z,54.95
2022-10-11T08:55:43.609Z,55.73
2022-10-11T08:58:16.564Z,54.19
2022-10-11T09:00:47.926Z,53.42
2022-10-11T09:03:37.621Z,53.98
2022-10-11T09:06:24.127Z,53.26
2022-10-11T09:09:30.105Z,52.71
2022-10-11T09:12:03.265Z,53.26
2022-10-11T09:14:43.421Z,53.40
2022-10-11T09:17:32.176Z,52.57
2022-10-11T09:20:26.045Z,51.93
2022-10-11T09:23:03.771Z,52.57
2022-10-11T09:25:44.203Z,52.74
2022-10-11T09:28:30.361Z,53.31
2022-10-11T09:30:58.926Z,52.16
2022-10-11T09:33:34.078Z,52.66
2022-10-11T09:36:11.741Z,53.12
2022-10-11T09:38:46.100Z,52.21
2022-10-11T09:41:16.709Z,51.81
2022-10-11T09:43:52.245Z,52.10
2022-10-11T09:46:30.470Z,52.34
2022-10-11T09:48:59.885Z,51.96
2022-10-11T09:51:27.935Z,51.20
2022-10-11T09:54:00.660Z,51.04
2022-10-11T09:56:30.702Z,50.12
2022-10-11T09:59:20.966Z,50.76
2022-10-11T10:01:50.206Z,50.44
2022-10-11T10:04:17.764Z,50.59
2022-10-11T10:06:44.986Z,50.59
2022-10-11T10:09:25.701Z,50.67
2022-10-11T10:11:55.644Z,50.57
2022-10-11T10:14:30.668Z,50.26
2022-10-11T10:17:06.466Z,50.08
2022-10-11T10:19:51.457Z,50.21
2022-10-11T10:22:27.431Z,50.45
2022-10-11T10:24:57.108Z,50.17
2022-10-11T10:27:27.242Z,49.96
2022-10-11T10:30:09.801Z,49.78
2022-10-11T10:32:53.016Z,49.62
2022-10-11T10:35:45.456Z,50.19
2022-10-11T10:38:28.050Z,49.85
2022-10-11T10:41:04.531Z,49.76
2022-10-11T10:43:37.431Z,49.88
2022-10-11T10:46:36.418Z,50.06
2022-10-11T10:49:52.544Z,50.20
2022-10-11T10:52:44.944Z,49.96
2022-10-11T10:55:42.391Z,49.61
2022-10-11T10:58:42.435Z,49.85
2022-10-11T11:01:23.605Z,50.02
2022-10-11T11:04:28.981Z,49.29
2022-10-11T11:07:13.965Z,49.50
2022-10-11T11:09:50.355Z,49.53
2022-10-11T11:12:30.859Z,49.31
2022-10-11T11:15:02.262Z,49.18
2022-10-11T11:17:35.420Z,49.26
2022-10-11T11:20:18.120Z,49.46
2022-10-11T11:22:59.429Z,49.45
2022-10-11T11:25:51.343Z,49.08
2022-10-11T11:28:30.492Z,49.12
2022-10-11T11:31:49.005Z,49.50
2022-10-11T11:34:24.213Z,49.48
2022-10-11T11:37:00.054Z,49.51
2022-10-11T11:39:43.058Z,49.29
2022-10-11T11:42:48.205Z,48.96
2022-10-11T11:45:23.557Z,49.21
2022-10-11T11:48:05.285Z,49.03
2022-10-11T11:50:44.683Z,49.01
2022-10-11T11:53:16.194Z,48.79
2022-10-11T11:55:52.493Z,48.62
2022-10-11T11:58:46.115Z,48.89
2022-10-11T12:01:39.315Z,49.09
2022-10-11T12:04:20.734Z,49.15
2022-10-11T12:07:15.782Z,49.18
2022-10-11T12:09:50.287Z,49.12
2022-10-11T12:12:36.120Z,49.07
2022-10-11T12:15:11.829Z,48.68
2022-10-11T12:18:16.200Z,48.66
2022-10-11T12:20:44.196Z,49.03
2022-10-11T12:23:30.670Z,49.08
2022-10-11T12:26:28.873Z,49.02
2022-10-11T12:29:05.609Z,48.81
2022-10-11T12:31:35.760Z,48.89
2022-10-11T12:34:16.657Z,48.67
2022-10-11T12:36:47.572Z,48.87
2022-10-11T12:39:17.960Z,48.44
2022-10-11T12:41:53.590Z,48.29
2022-10-11T12:44:26.320Z,48.65
2022-10-11T12:46:54.338Z,48.66
2022-10-11T12:49:28.048Z,48.59
2022-10-11T12:52:20.049Z,48.54
2022-10-11T12:54:59.877Z,48.37
2022-10-11T12:57:46.203Z,48.32
2022-10-11T13:00:28.609Z,48.27
2022-10-11T13:03:02.897Z,48.48
2022-10-11T13:05:44.994Z,48.60
2022-10-11T13:08:25.904Z,48.52
2022-10-11T13:10:55.345Z,48.12
2022-10-11T13:13:41.330Z,48.23
2022-10-11T13:16:16.796Z,48.05
2022-10-11T13:18:47.464Z,48.14
2022-10-11T13:21:25.444Z,48.30
2022-10-11T13:24:00.336Z,48.45
2022-10-11T13:26:29.841Z,48.06
2022-10-11T13:28:59.679Z,48.08
2022-10-11T13:31:27.524Z,48.23
2022-10-11T13:33:58.737Z,48.22
2022-10-11T13:36:27.393Z,48.33
2022-10-11T13:38:58.584Z,48.14
2022-10-11T13:41:28.781Z,48.12
2022-10-11T13:43:57.917Z,47.98
2022-10-11T13:46:27.991Z,47.89
2022-10-11T13:49:04.136Z,48.01
2022-10-11T13:51:37.199Z,48.15
2022-10-11T13:54:06.165Z,48.10
2022-10-11T13:56:45.992Z,48.18
2022-10-11T13:59:23.088Z,48.23
2022-10-11T14:01:57.414Z,47.90
2022-10-11T14:04:29.524Z,47.89
2022-10-11T14:07:02.006Z,47.93
2022-10-11T14:09:36.481Z,47.93
2022-10-11T14:12:27.902Z,47.97
2022-10-11T14:14:55.357Z,47.87
2022-10-11T14:17:43.660Z,47.85
2022-10-11T14:20:33.403Z,47.89
2022-10-11T14:23:00.965Z,47.92
2022-10-11T14:25:28.727Z,48.05
2022-10-11T14:27:56.316Z,48.16
2022-10-11T14:30:27.326Z,48.28
2022-10-11T14:32:57.540Z,48.21
2022-10-11T14:35:32.129Z,48.12
2022-10-11T14:38:00.304Z,48.06
2022-10-11T14:40:30.084Z,48.13
2022-10-11T14:42:57.951Z,48.15
2022-10-11T14:45:27.137Z,48.23
2022-10-11T14:47:55.330Z,48.22
2022-10-11T14:50:36.579Z,48.36
2022-10-11T14:53:05.513Z,48.42
2022-10-11T14:55:35.275Z,48.50
2022-10-11T14:58:03.001Z,48.63
2022-10-11T15:00:31.321Z,48.61
2022-10-11T15:02:59.227Z,48.55
2022-10-11T15:05:33.506Z,48.56
2022-10-11T15:08:05.768Z,48.50
2022-10-11T15:10:40.568Z,48.53
2022-10-11T15:13:08.783Z,48.69
2022-10-11T15:15:40.560Z,48.69
2022-10-11T15:18:12.353Z,48.64
2022-10-11T15:20:43.127Z,48.68
2022-10-11T15:23:10.792Z,48.69
2022-10-11T15:25:41.425Z,48.71
2022-10-11T15:28:19.757Z,48.70
2022-10-11T15:30:47.103Z,48.70
2022-10-11T15:33:14.333Z,48.75
2022-10-11T15:35:41.737Z,48.80
2022-10-11T15:38:17.446Z,48.76
2022-10-11T15:40:46.875Z,48.84
2022-10-11T15:43:15.498Z,48.94
2022-10-11T15:45:43.543Z,48.95
2022-10-11T15:48:15.552Z,49.04
2022-10-11T15:50:42.700Z,49.10
2022-10-11T15:53:18.901Z,49.13
2022-10-11T15:55:51.410Z,49.20
2022-10-11T15:58:21.971Z,49.25
2022-10-11T16:00:55.507Z,49.27
2022-10-11T16:03:26.026Z,49.38
2022-10-11T16:05:54.343Z,49.23
2022-10-11T16:08:22.104Z,49.33
2022-10-11T16:10:50.473Z,49.34
2022-10-11T16:13:17.944Z,49.36
2022-10-11T16:15:46.036Z,49.41
2022-10-11T16:18:15.690Z,49.51
2022-10-11T16:20:46.842Z,49.52
2022-10-11T16:23:14.911Z,49.65
2022-10-11T16:25:43.090Z,49.63
2022-10-11T16:28:10.648Z,49.68
2022-10-11T16:30:45.507Z,49.69
2022-10-11T16:33:13.457Z,49.70
2022-10-11T16:35:41.801Z,49.85
2022-10-11T16:38:09.876Z,49.84
2022-10-11T16:40:38.939Z,50.00
2022-10-11T16:43:07.975Z,50.03
2022-10-11T16:45:36.111Z,50.09
2022-10-11T16:48:04.345Z,50.01
2022-10-11T16:50:34.482Z,50.00
2022-10-11T16:53:06.069Z,50.15
2022-10-11T16:55:33.120Z,50.14
2022-10-11T16:58:00.150Z,50.26
2022-10-11T17:00:27.912Z,50.26
2022-10-11T17:03:07.165Z,50.29
2022-10-11T17:06:10.630Z,50.46
2022-10-11T17:09:00.797Z,50.60
2022-10-11T17:11:56.602Z,50.71
2022-10-11T17:14:51.847Z,51.37
2022-10-11T17:17:52.290Z,51.28
2022-10-11T17:20:40.937Z,51.41
2022-10-11T17:23:32.769Z,51.41
2022-10-11T17:26:31.192Z,51.45
2022-10-11T17:29:21.635Z,52.06
2022-10-11T17:32:14.106Z,51.90
2022-10-11T17:35:15.855Z,51.64
2022-10-11T17:37:53.215Z,51.72
2022-10-11T17:40:21.103Z,51.65
2022-10-11T17:42:48.254Z,51.95
2022-10-11T17:45:15.711Z,52.29
2022-10-11T17:47:43.792Z,52.47
2022-10-11T17:50:11.124Z,52.79
2022-10-11T17:52:38.239Z,52.92
2022-10-11T17:55:06.393Z,52.97
2022-10-11T17:57:33.452Z,52.52
2022-10-11T18:00:03.511Z,52.65
2022-10-11T18:02:34.704Z,52.80
2022-10-11T18:05:02.926Z,52.76
2022-10-11T18:07:30.034Z,52.64
2022-10-11T18:09:57.854Z,52.58
2022-10-11T18:12:25.691Z,52.71
2022-10-11T18:14:52.792Z,52.81
2022-10-11T18:17:20.415Z,52.64
2022-10-11T18:19:47.810Z,52.63
2022-10-11T18:22:14.829Z,52.82
2022-10-11T18:24:42.595Z,52.84
2022-10-11T18:27:10.095Z,52.79
2022-10-11T18:29:37.178Z,52.92
2022-10-11T18:32:05.104Z,52.95
2022-10-11T18:34:33.072Z,53.15
2022-10-11T18:37:00.452Z,53.30
2022-10-11T18:39:28.186Z,53.39
2022-10-11T18:41:55.302Z,53.43
2022-10-11T18:44:22.672Z,53.50
2022-10-11T18:46:51.088Z,53.67
2022-10-11T18:49:18.062Z,53.71
2022-10-11T18:51:46.105Z,53.69
2022-10-11T18:54:18.427Z,53.88
2022-10-11T18:56:48.731Z,53.97
2022-10-11T18:59:16.366Z,53.99
2022-10-11T19:01:44.352Z,54.14
2022-10-11T19:04:13.260Z,54.25
2022-10-11T19:06:44.189Z,54.16
2022-10-11T19:09:14.555Z,54.18
2022-10-11T19:11:41.806Z,54.43
2022-10-11T19:14:15.260Z,54.77
2022-10-11T19:16:45.919Z,54.94
2022-10-11T19:19:12.911Z,54.93
2022-10-11T19:21:40.783Z,55.28
2022-10-11T19:24:08.799Z,55.13
2022-10-11T19:26:40.537Z,55.38
2022-10-11T19:29:09.966Z,55.19
2022-10-11T19:31:44.801Z,55.59
2022-10-11T19:34:13.224Z,55.76
2022-10-11T19:36:42.427Z,55.47
2022-10-11T19:39:15.114Z,55.89
2022-10-11T19:41:43.373Z,55.76
2022-10-11T19:44:12.049Z,55.82
2022-10-11T19:46:55.141Z,56.15
2022-10-11T19:49:24.452Z,56.18
2022-10-11T19:51:55.222Z,56.00
2022-10-11T19:54:23.300Z,56.09
2022-10-11T19:56:51.361Z,56.27
2022-10-11T19:59:19.561Z,55.93
2022-10-11T20:01:51.984Z,55.78
2022-10-11T20:07:08.541Z,55.51
2022-10-11T20:09:36.732Z,55.62
2022-10-11T20:12:04.187Z,55.68
2022-10-11T20:14:31.289Z,55.69
2022-10-11T20:16:59.120Z,55.75
2022-10-11T20:19:30.555Z,55.82
2022-10-11T20:22:00.257Z,56.00
2022-10-11T20:24:31.908Z,55.90
2022-10-11T20:26:59.015Z,56.01
2022-10-11T20:29:27.336Z,56.12
2022-10-11T20:31:55.887Z,56.22
2022-10-11T20:34:23.108Z,56.33
2022-10-11T20:36:50.668Z,56.37
2022-10-11T20:39:18.401Z,56.44
2022-10-11T20:41:46.264Z,56.47
2022-10-11T20:44:15.918Z,56.65
2022-10-11T20:46:43.492Z,56.51
2022-10-11T20:49:11.495Z,56.59
2022-10-11T20:51:41.419Z,56.72
2022-10-11T20:54:08.841Z,56.75
2022-10-11T20:56:36.250Z,56.83
2022-10-11T20:59:04.210Z,56.99
2022-10-11T21:01:38.197Z,57.26
2022-10-11T21:04:07.465Z,57.13
2022-10-11T21:06:34.633Z,57.23
2022-10-11T21:09:01.999Z,57.39
2022-10-11T21:11:31.914Z,57.40
2022-10-11T21:14:01.256Z,57.45
2022-10-11T21:16:28.486Z,57.54
2022-10-11T21:18:57.027Z,57.37
2022-10-11T21:21:25.756Z,57.35
2022-10-11T21:23:54.186Z,57.26
2022-10-11T21:26:21.857Z,57.30
2022-10-11T21:28:49.363Z,57.35
2022-10-11T21:31:18.655Z,57.48
2022-10-11T21:33:46.031Z,57.55
2022-10-11T21:36:17.817Z,57.55
2022-10-11T21:38:45.673Z,57.61
2022-10-11T21:41:17.524Z,58.25
2022-10-11T21:43:45.989Z,58.21
2022-10-11T21:46:22.487Z,58.17
2022-10-11T21:48:50.216Z,58.67
2022-10-11T21:51:26.504Z,58.48
2022-10-11T21:53:55.832Z,58.70
2022-10-11T21:56:23.538Z,58.82
2022-10-11T21:58:50.927Z,58.54
2022-10-11T22:01:19.823Z,58.40
2022-10-11T22:03:47.982Z,58.60
2022-10-11T22:06:16.219Z,58.90
2022-10-11T22:08:43.877Z,58.96
2022-10-11T22:11:11.597Z,59.08
2022-10-11T22:13:38.954Z,59.41
2022-10-11T22:16:09.136Z,59.32
2022-10-11T22:18:36.523Z,59.19
2022-10-11T22:21:14.434Z,59.16
2022-10-11T22:23:44.157Z,58.87
2022-10-11T22:26:14.582Z,58.77
2022-10-11T22:28:42.067Z,58.65
2022-10-11T22:31:10.170Z,58.75
2022-10-11T22:33:38.002Z,58.78
2022-10-11T22:36:11.810Z,58.95
2022-10-11T22:38:40.848Z,59.14
2022-10-11T22:41:09.222Z,59.16
2022-10-11T22:43:36.871Z,59.11
2022-10-11T22:46:05.627Z,59.04
2022-10-11T22:48:33.048Z,59.13
2022-10-11T22:51:01.013Z,59.06
2022-10-11T22:53:28.867Z,59.02
2022-10-11T22:55:56.131Z,59.20
2022-10-11T22:58:23.513Z,59.36
2022-10-11T23:00:50.998Z,59.35
2022-10-11T23:03:19.123Z,59.41
2022-10-11T23:05:57.467Z,59.44
2022-10-11T23:08:25.579Z,59.47
2022-10-11T23:10:53.298Z,59.52
2022-10-11T23:13:21.155Z,59.75
2022-10-11T23:15:49.064Z,59.63
2022-10-11T23:18:16.742Z,59.61
2022-10-11T23:20:44.457Z,59.57
2022-10-11T23:23:12.046Z,59.48
2022-10-11T23:25:39.213Z,59.70
2022-10-11T23:28:06.509Z,59.75
2022-10-11T23:30:34.378Z,59.69
2022-10-11T23:33:01.594Z,59.68
2022-10-11T23:35:28.724Z,59.75
2022-10-11T23:37:56.400Z,59.78
2022-10-11T23:40:23.412Z,60.09
2022-10-11T23:42:50.850Z,60.25
2022-10-11T23:45:18.429Z,60.27
2022-10-11T23:47:45.446Z,60.35
2022-10-11T23:50:12.848Z,60.48
2022-10-11T23:52:40.290Z,60.48
2022-10-11T23:55:07.920Z,60.26
2022-10-11T23:57:35.469Z,60.14
